sensor_id;sensor_type;location;lat;lon;timestamp;pressure;altitude;pressure_sealevel;temperature;humidity
75317;BME280;63913;51.492;10.368;2024-01-27T00:00:17;99794.53;;;3.54;83.09
75317;BME280;63913;51.492;10.368;2024-01-27T00:02:43;99799.50;;;3.53;83.69
75317;BME280;63913;51.492;10.368;2024-01-27T00:05:08;99792.97;;;3.56;84.04
75317;BME280;63913;51.492;10.368;2024-01-27T00:07:34;99800.59;;;3.56;84.40
75317;BME280;63913;51.492;10.368;2024-01-27T00:09:59;99809.97;;;3.57;84.50
75317;BME280;63913;51.492;10.368;2024-01-27T00:12:25;99808.25;;;3.56;84.91
75317;BME280;63913;51.492;10.368;2024-01-27T00:14:50;99802.16;;;3.54;85.47
75317;BME280;63913;51.492;10.368;2024-01-27T00:17:16;99816.28;;;3.51;85.33
75317;BME280;63913;51.492;10.368;2024-01-27T00:19:41;99817.53;;;3.56;85.54
75317;BME280;63913;51.492;10.368;2024-01-27T00:22:07;99818.59;;;3.59;85.51
75317;BME280;63913;51.492;10.368;2024-01-27T00:24:33;99822.69;;;3.57;85.46
75317;BME280;63913;51.492;10.368;2024-01-27T00:26:58;99832.53;;;3.53;86.76
75317;BME280;63913;51.492;10.368;2024-01-27T00:29:23;99817.94;;;3.50;86.05
75317;BME280;63913;51.492;10.368;2024-01-27T00:31:49;99838.41;;;3.52;86.32
75317;BME280;63913;51.492;10.368;2024-01-27T00:34:16;99840.19;;;3.53;85.80
75317;BME280;63913;51.492;10.368;2024-01-27T00:36:41;99834.66;;;3.47;86.20
75317;BME280;63913;51.492;10.368;2024-01-27T00:39:16;99841.28;;;3.44;85.90
75317;BME280;63913;51.492;10.368;2024-01-27T00:41:42;99840.41;;;3.44;86.10
75317;BME280;63913;51.492;10.368;2024-01-27T00:44:08;99841.06;;;3.41;86.42
75317;BME280;63913;51.492;10.368;2024-01-27T00:46:34;99838.44;;;3.40;87.07
75317;BME280;63913;51.492;10.368;2024-01-27T00:48:59;99845.06;;;3.38;86.91
75317;BME280;63913;51.492;10.368;2024-01-27T00:51:24;99844.06;;;3.36;86.43
75317;BME280;63913;51.492;10.368;2024-01-27T00:53:49;99843.16;;;3.35;87.25
75317;BME280;63913;51.492;10.368;2024-01-27T00:56:15;99847.72;;;3.39;87.04
75317;BME280;63913;51.492;10.368;2024-01-27T00:58:40;99848.38;;;3.37;86.95
75317;BME280;63913;51.492;10.368;2024-01-27T01:01:06;99852.34;;;3.33;87.35
75317;BME280;63913;51.492;10.368;2024-01-27T01:03:33;99863.31;;;3.32;87.41
75317;BME280;63913;51.492;10.368;2024-01-27T01:05:59;99859.31;;;3.36;87.33
75317;BME280;63913;51.492;10.368;2024-01-27T01:08:24;99849.47;;;3.40;87.67
75317;BME280;63913;51.492;10.368;2024-01-27T01:10:49;99857.97;;;3.41;87.49
75317;BME280;63913;51.492;10.368;2024-01-27T01:13:15;99857.41;;;3.33;87.96
75317;BME280;63913;51.492;10.368;2024-01-27T01:15:40;99865.72;;;3.31;87.88
75317;BME280;63913;51.492;10.368;2024-01-27T01:18:05;99870.69;;;3.29;88.22
75317;BME280;63913;51.492;10.368;2024-01-27T01:20:31;99871.56;;;3.30;88.29
75317;BME280;63913;51.492;10.368;2024-01-27T01:22:58;99876.00;;;3.32;88.28
75317;BME280;63913;51.492;10.368;2024-01-27T01:25:23;99883.72;;;3.34;88.25
75317;BME280;63913;51.492;10.368;2024-01-27T01:27:48;99882.84;;;3.33;88.51
75317;BME280;63913;51.492;10.368;2024-01-27T01:30:15;99893.88;;;3.34;88.67
75317;BME280;63913;51.492;10.368;2024-01-27T01:32:42;99900.41;;;3.30;88.58
75317;BME280;63913;51.492;10.368;2024-01-27T01:35:08;99884.81;;;3.26;89.00
75317;BME280;63913;51.492;10.368;2024-01-27T01:37:33;99892.78;;;3.19;89.61
75317;BME280;63913;51.492;10.368;2024-01-27T01:39:58;99898.75;;;3.19;89.92
75317;BME280;63913;51.492;10.368;2024-01-27T01:42:24;99896.63;;;3.25;89.39
75317;BME280;63913;51.492;10.368;2024-01-27T01:44:51;99892.78;;;3.19;89.45
75317;BME280;63913;51.492;10.368;2024-01-27T01:47:17;99902.28;;;3.21;90.10
75317;BME280;63913;51.492;10.368;2024-01-27T01:49:43;99898.84;;;3.21;89.77
75317;BME280;63913;51.492;10.368;2024-01-27T01:52:08;99899.97;;;3.24;90.11
75317;BME280;63913;51.492;10.368;2024-01-27T01:54:34;99908.38;;;3.23;89.81
75317;BME280;63913;51.492;10.368;2024-01-27T01:57:00;99911.56;;;3.21;89.87
75317;BME280;63913;51.492;10.368;2024-01-27T01:59:26;99902.28;;;3.21;89.82
75317;BME280;63913;51.492;10.368;2024-01-27T02:01:51;99902.28;;;3.21;89.91
75317;BME280;63913;51.492;10.368;2024-01-27T02:04:16;99906.38;;;3.19;90.15
75317;BME280;63913;51.492;10.368;2024-01-27T02:06:42;99914.22;;;3.22;90.30
75317;BME280;63913;51.492;10.368;2024-01-27T02:09:07;99911.56;;;3.21;90.23
75317;BME280;63913;51.492;10.368;2024-01-27T02:11:32;99917.41;;;3.20;90.10
75317;BME280;63913;51.492;10.368;2024-01-27T02:13:58;99922.84;;;3.24;90.07
75317;BME280;63913;51.492;10.368;2024-01-27T02:16:23;99920.19;;;3.23;90.28
75317;BME280;63913;51.492;10.368;2024-01-27T02:18:49;99915.63;;;3.19;90.06
75317;BME280;63913;51.492;10.368;2024-01-27T02:21:14;99913.66;;;3.15;90.45
75317;BME280;63913;51.492;10.368;2024-01-27T02:23:39;99917.19;;;3.17;90.71
75317;BME280;63913;51.492;10.368;2024-01-27T02:26:05;99912.34;;;3.20;90.26
75317;BME280;63913;51.492;10.368;2024-01-27T02:28:30;99901.06;;;3.16;90.26
75317;BME280;63913;51.492;10.368;2024-01-27T02:30:57;99897.41;;;3.13;90.37
75317;BME280;63913;51.492;10.368;2024-01-27T02:33:25;99894.09;;;3.14;90.46
75317;BME280;63913;51.492;10.368;2024-01-27T02:35:50;99898.19;;;3.12;90.86
75317;BME280;63913;51.492;10.368;2024-01-27T02:38:16;99899.94;;;3.13;90.42
75317;BME280;63913;51.492;10.368;2024-01-27T02:40:41;99911.25;;;3.16;90.69
75317;BME280;63913;51.492;10.368;2024-01-27T02:43:06;99906.56;;;3.11;90.72
75317;BME280;63913;51.492;10.368;2024-01-27T02:45:32;99903.81;;;3.08;91.00
75317;BME280;63913;51.492;10.368;2024-01-27T02:47:57;99899.84;;;3.11;90.77
75317;BME280;63913;51.492;10.368;2024-01-27T02:50:22;99897.09;;;3.08;90.66
75317;BME280;63913;51.492;10.368;2024-01-27T02:52:48;99903.69;;;3.06;90.85
75317;BME280;63913;51.492;10.368;2024-01-27T02:55:13;99899.28;;;3.03;91.06
75317;BME280;63913;51.492;10.368;2024-01-27T02:57:40;99909.78;;;3.08;91.07
75317;BME280;63913;51.492;10.368;2024-01-27T03:00:06;99912.22;;;3.06;90.90
75317;BME280;63913;51.492;10.368;2024-01-27T03:02:32;99914.50;;;3.03;91.08
75317;BME280;63913;51.492;10.368;2024-01-27T03:04:57;99920.03;;;3.10;91.34
75317;BME280;63913;51.492;10.368;2024-01-27T03:07:22;99918.19;;;3.07;90.80
75317;BME280;63913;51.492;10.368;2024-01-27T03:09:48;99925.03;;;3.08;91.31
75317;BME280;63913;51.492;10.368;2024-01-27T03:12:13;99922.38;;;3.06;91.04
75317;BME280;63913;51.492;10.368;2024-01-27T03:14:41;99922.56;;;3.10;90.79
75317;BME280;63913;51.492;10.368;2024-01-27T03:17:07;99934.31;;;3.08;91.27
75317;BME280;63913;51.492;10.368;2024-01-27T03:19:32;99937.06;;;3.11;91.46
75317;BME280;63913;51.492;10.368;2024-01-27T03:21:58;99944.91;;;3.14;91.13
75317;BME280;63913;51.492;10.368;2024-01-27T03:24:23;99943.03;;;3.11;91.36
75317;BME280;63913;51.492;10.368;2024-01-27T03:26:48;99951.00;;;3.16;91.16
75317;BME280;63913;51.492;10.368;2024-01-27T03:29:14;99953.44;;;3.14;91.07
75317;BME280;63913;51.492;10.368;2024-01-27T03:31:39;99958.28;;;3.11;91.63
75317;BME280;63913;51.492;10.368;2024-01-27T03:34:05;99962.59;;;3.12;90.97
75317;BME280;63913;51.492;10.368;2024-01-27T03:36:30;99964.47;;;3.15;91.54
75317;BME280;63913;51.492;10.368;2024-01-27T03:38:59;99962.81;;;3.15;91.16
75317;BME280;63913;51.492;10.368;2024-01-27T03:41:24;99964.69;;;3.18;90.58
75317;BME280;63913;51.492;10.368;2024-01-27T03:43:49;99970.53;;;3.17;91.25
75317;BME280;63913;51.492;10.368;2024-01-27T03:46:15;99967.13;;;3.16;91.21
75317;BME280;63913;51.492;10.368;2024-01-27T03:48:41;99967.13;;;3.16;90.62
75317;BME280;63913;51.492;10.368;2024-01-27T03:51:06;99978.06;;;3.15;91.08
75317;BME280;63913;51.492;10.368;2024-01-27T03:53:31;99972.09;;;3.15;91.46
75317;BME280;63913;51.492;10.368;2024-01-27T03:55:57;99979.16;;;3.19;90.90
75317;BME280;63913;51.492;10.368;2024-01-27T03:58:24;99984.25;;;3.19;91.04
75317;BME280;63913;51.492;10.368;2024-01-27T04:00:51;99980.19;;;3.21;91.01
75317;BME280;63913;51.492;10.368;2024-01-27T04:03:16;99989.78;;;3.25;90.92
75317;BME280;63913;51.492;10.368;2024-01-27T04:05:42;99986.28;;;3.23;90.41
75317;BME280;63913;51.492;10.368;2024-01-27T04:08:07;99990.59;;;3.24;90.71
75317;BME280;63913;51.492;10.368;2024-01-27T04:10:33;99999.63;;;3.20;90.86
75317;BME280;63913;51.492;10.368;2024-01-27T04:12:58;99995.19;;;3.18;90.40
75317;BME280;63913;51.492;10.368;2024-01-27T04:15:23;100007.00;;;3.17;91.12
75317;BME280;63913;51.492;10.368;2024-01-27T04:17:49;100020.59;;;3.18;91.04
75317;BME280;63913;51.492;10.368;2024-01-27T04:20:14;100014.41;;;3.14;91.59
75317;BME280;63913;51.492;10.368;2024-01-27T04:22:39;100009.53;;;3.17;91.05
75317;BME280;63913;51.492;10.368;2024-01-27T04:25:05;100012.09;;;3.17;90.75
75317;BME280;63913;51.492;10.368;2024-01-27T04:27:32;100012.00;;;3.16;90.81
75317;BME280;63913;51.492;10.368;2024-01-27T04:29:57;100012.75;;;3.15;91.01
75317;BME280;63913;51.492;10.368;2024-01-27T04:32:22;100022.25;;;3.17;91.21
75317;BME280;63913;51.492;10.368;2024-01-27T04:34:48;100025.16;;;3.22;91.19
75317;BME280;63913;51.492;10.368;2024-01-27T04:37:14;100019.41;;;3.24;91.55
75317;BME280;63913;51.492;10.368;2024-01-27T04:39:39;100034.13;;;3.28;91.31
75317;BME280;63913;51.492;10.368;2024-01-27T04:42:05;100036.41;;;3.25;90.99
75317;BME280;63913;51.492;10.368;2024-01-27T04:44:32;100048.03;;;3.22;91.23
75317;BME280;63913;51.492;10.368;2024-01-27T04:46:57;100037.31;;;3.26;90.99
75317;BME280;63913;51.492;10.368;2024-01-27T04:49:23;100041.41;;;3.24;91.20
75317;BME280;63913;51.492;10.368;2024-01-27T04:51:48;100041.41;;;3.24;90.87
75317;BME280;63913;51.492;10.368;2024-01-27T04:54:13;100035.66;;;3.26;91.05
75317;BME280;63913;51.492;10.368;2024-01-27T04:56:39;100052.03;;;3.30;90.71
75317;BME280;63913;51.492;10.368;2024-01-27T04:59:04;100045.81;;;3.26;91.26
75317;BME280;63913;51.492;10.368;2024-01-27T05:01:30;100054.19;;;3.25;91.38
75317;BME280;63913;51.492;10.368;2024-01-27T05:03:55;100056.09;;;3.28;91.38
75317;BME280;63913;51.492;10.368;2024-01-27T05:06:21;100041.63;;;3.27;91.29
75317;BME280;63913;51.492;10.368;2024-01-27T05:08:46;100049.59;;;3.31;91.59
75317;BME280;63913;51.492;10.368;2024-01-27T05:11:11;100053.69;;;3.29;91.55
75317;BME280;63913;51.492;10.368;2024-01-27T05:13:37;100056.88;;;3.27;91.70
75317;BME280;63913;51.492;10.368;2024-01-27T05:16:05;100053.22;;;3.23;92.00
75317;BME280;63913;51.492;10.368;2024-01-27T05:18:31;100065.94;;;3.23;92.51
75317;BME280;63913;51.492;10.368;2024-01-27T05:20:56;100058.19;;;3.22;92.55
75317;BME280;63913;51.492;10.368;2024-01-27T05:23:21;100065.94;;;3.23;92.76
75317;BME280;63913;51.492;10.368;2024-01-27T05:25:47;100062.91;;;3.17;92.43
75317;BME280;63913;51.492;10.368;2024-01-27T05:28:12;100062.91;;;3.17;93.04
75317;BME280;63913;51.492;10.368;2024-01-27T05:30:37;100074.97;;;3.20;93.03
75317;BME280;63913;51.492;10.368;2024-01-27T05:33:03;100077.03;;;3.14;92.74
75317;BME280;63913;51.492;10.368;2024-01-27T05:35:29;100074.50;;;3.14;93.28
75317;BME280;63913;51.492;10.368;2024-01-27T05:37:55;100075.41;;;3.14;92.89
75317;BME280;63913;51.492;10.368;2024-01-27T05:40:20;100078.16;;;3.17;93.10
75317;BME280;63913;51.492;10.368;2024-01-27T05:42:45;100080.34;;;3.13;93.05
75317;BME280;63913;51.492;10.368;2024-01-27T05:45:11;100083.19;;;3.05;93.57
75317;BME280;63913;51.492;10.368;2024-01-27T05:47:37;100088.41;;;3.07;93.54
75317;BME280;63913;51.492;10.368;2024-01-27T05:50:03;100089.16;;;3.06;93.41
75317;BME280;63913;51.492;10.368;2024-01-27T05:52:29;100084.97;;;3.06;93.57
75317;BME280;63913;51.492;10.368;2024-01-27T05:54:55;100088.56;;;2.98;93.67
75317;BME280;63913;51.492;10.368;2024-01-27T05:57:20;100088.91;;;3.03;93.63
75317;BME280;63913;51.492;10.368;2024-01-27T05:59:45;100096.41;;;3.01;94.33
75317;BME280;63913;51.492;10.368;2024-01-27T06:02:11;100103.28;;;3.02;93.93
75317;BME280;63913;51.492;10.368;2024-01-27T06:04:36;100097.44;;;3.03;93.88
75317;BME280;63913;51.492;10.368;2024-01-27T06:07:02;100104.81;;;3.00;93.93
75317;BME280;63913;51.492;10.368;2024-01-27T06:09:27;100100.28;;;2.96;94.32
75317;BME280;63913;51.492;10.368;2024-01-27T06:11:53;100106.22;;;2.97;94.29
75317;BME280;63913;51.492;10.368;2024-01-27T06:14:18;100094.72;;;2.90;94.50
75317;BME280;63913;51.492;10.368;2024-01-27T06:16:44;100097.00;;;2.87;94.37
75317;BME280;63913;51.492;10.368;2024-01-27T06:19:09;100091.22;;;2.78;94.64
75317;BME280;63913;51.492;10.368;2024-01-27T06:21:34;100096.16;;;2.77;94.73
75317;BME280;63913;51.492;10.368;2024-01-27T06:24:00;100107.28;;;2.67;95.15
75317;BME280;63913;51.492;10.368;2024-01-27T06:26:25;100110.31;;;2.63;95.19
75317;BME280;63913;51.492;10.368;2024-01-27T06:28:51;100108.16;;;2.67;95.24
75317;BME280;63913;51.492;10.368;2024-01-27T06:31:16;100107.38;;;2.68;94.90
75317;BME280;63913;51.492;10.368;2024-01-27T06:33:41;100109.03;;;2.68;95.03
75317;BME280;63913;51.492;10.368;2024-01-27T06:36:07;100116.63;;;2.68;94.75
75317;BME280;63913;51.492;10.368;2024-01-27T06:38:36;100104.47;;;2.64;94.69
75317;BME280;63913;51.492;10.368;2024-01-27T06:41:03;100106.91;;;2.62;95.07
75317;BME280;63913;51.492;10.368;2024-01-27T06:43:28;100116.03;;;2.60;95.22
75317;BME280;63913;51.492;10.368;2024-01-27T06:45:54;100107.94;;;2.54;95.12
75317;BME280;63913;51.492;10.368;2024-01-27T06:48:21;100111.53;;;2.46;95.46
75317;BME280;63913;51.492;10.368;2024-01-27T06:50:46;100117.97;;;2.53;95.85
75317;BME280;63913;51.492;10.368;2024-01-27T06:53:11;100117.88;;;2.51;95.40
75317;BME280;63913;51.492;10.368;2024-01-27T06:55:37;100116.72;;;2.48;95.77
75317;BME280;63913;51.492;10.368;2024-01-27T06:58:02;100111.53;;;2.36;96.00
75317;BME280;63913;51.492;10.368;2024-01-27T07:00:28;100113.84;;;2.33;96.80
75317;BME280;63913;51.492;10.368;2024-01-27T07:02:53;100131.63;;;2.23;96.90
75317;BME280;63913;51.492;10.368;2024-01-27T07:05:19;100133.41;;;2.24;97.27
75317;BME280;63913;51.492;10.368;2024-01-27T07:07:44;100134.94;;;2.22;96.98
75317;BME280;63913;51.492;10.368;2024-01-27T07:10:10;100138.34;;;2.22;97.24
75317;BME280;63913;51.492;10.368;2024-01-27T07:12:35;100141.28;;;2.17;97.28
75317;BME280;63913;51.492;10.368;2024-01-27T07:15:01;100142.31;;;2.19;97.57
75317;BME280;63913;51.492;10.368;2024-01-27T07:17:27;100137.59;;;2.23;97.17
75317;BME280;63913;51.492;10.368;2024-01-27T07:19:53;100134.81;;;2.20;97.13
75317;BME280;63913;51.492;10.368;2024-01-27T07:22:18;100139.66;;;2.17;97.14
75317;BME280;63913;51.492;10.368;2024-01-27T07:24:43;100142.31;;;2.19;96.95
75317;BME280;63913;51.492;10.368;2024-01-27T07:27:12;100156.88;;;2.11;97.51
75317;BME280;63913;51.492;10.368;2024-01-27T07:29:37;100148.16;;;2.08;98.02
75317;BME280;63913;51.492;10.368;2024-01-27T07:32:03;100157.41;;;2.07;97.59
75317;BME280;63913;51.492;10.368;2024-01-27T07:34:28;100166.53;;;2.05;97.75
75317;BME280;63913;51.492;10.368;2024-01-27T07:36:54;100167.03;;;2.11;97.58
75317;BME280;63913;51.492;10.368;2024-01-27T07:39:19;100172.22;;;2.13;97.53
75317;BME280;63913;51.492;10.368;2024-01-27T07:41:44;100177.84;;;2.09;97.84
75317;BME280;63913;51.492;10.368;2024-01-27T07:44:11;100180.09;;;2.06;97.40
75317;BME280;63913;51.492;10.368;2024-01-27T07:46:41;100193.28;;;2.12;97.64
75317;BME280;63913;51.492;10.368;2024-01-27T07:49:07;100193.28;;;2.12;97.45
75317;BME280;63913;51.492;10.368;2024-01-27T07:51:33;100194.31;;;2.14;97.49
75317;BME280;63913;51.492;10.368;2024-01-27T07:53:59;100191.91;;;2.15;97.24
75317;BME280;63913;51.492;10.368;2024-01-27T07:56:25;100192.41;;;2.11;97.09
75317;BME280;63913;51.492;10.368;2024-01-27T07:58:50;100199.91;;;2.10;97.38
75317;BME280;63913;51.492;10.368;2024-01-27T08:01:17;100189.63;;;2.08;97.30
75317;BME280;63913;51.492;10.368;2024-01-27T08:03:42;100193.06;;;2.09;97.38
75317;BME280;63913;51.492;10.368;2024-01-27T08:06:18;100196.34;;;2.08;97.60
75317;BME280;63913;51.492;10.368;2024-01-27T08:08:45;100205.75;;;2.09;97.31
75317;BME280;63913;51.492;10.368;2024-01-27T08:11:11;100211.31;;;2.05;97.26
75317;BME280;63913;51.492;10.368;2024-01-27T08:13:37;100207.25;;;1.97;97.90
75317;BME280;63913;51.492;10.368;2024-01-27T08:16:02;100207.66;;;2.01;98.00
75317;BME280;63913;51.492;10.368;2024-01-27T08:18:29;100213.72;;;2.03;97.56
75317;BME280;63913;51.492;10.368;2024-01-27T08:20:54;100210.16;;;2.11;97.41
75317;BME280;63913;51.492;10.368;2024-01-27T08:23:20;100215.34;;;2.13;97.32
75317;BME280;63913;51.492;10.368;2024-01-27T08:25:45;100217.53;;;2.08;97.22
75317;BME280;63913;51.492;10.368;2024-01-27T08:28:12;100219.19;;;2.18;96.79
75317;BME280;63913;51.492;10.368;2024-01-27T08:30:37;100222.72;;;2.20;96.71
75317;BME280;63913;51.492;10.368;2024-01-27T08:33:04;100222.97;;;2.23;96.83
75317;BME280;63913;51.492;10.368;2024-01-27T08:35:30;100219.56;;;2.22;96.60
75317;BME280;63913;51.492;10.368;2024-01-27T08:37:55;100212.47;;;2.18;96.92
75317;BME280;63913;51.492;10.368;2024-01-27T08:40:20;100216.38;;;2.15;97.18
75317;BME280;63913;51.492;10.368;2024-01-27T08:42:46;100232.09;;;2.21;96.89
75317;BME280;63913;51.492;10.368;2024-01-27T08:45:11;100233.41;;;2.26;97.09
75317;BME280;63913;51.492;10.368;2024-01-27T08:47:37;100221.19;;;2.22;97.17
75317;BME280;63913;51.492;10.368;2024-01-27T08:50:03;100222.84;;;2.21;97.11
75317;BME280;63913;51.492;10.368;2024-01-27T08:52:29;100220.19;;;2.30;97.17
75317;BME280;63913;51.492;10.368;2024-01-27T08:54:55;100229.06;;;2.35;96.71
75317;BME280;63913;51.492;10.368;2024-01-27T08:57:20;100215.50;;;2.35;96.78
75317;BME280;63913;51.492;10.368;2024-01-27T08:59:45;100219.03;;;2.37;96.65
75317;BME280;63913;51.492;10.368;2024-01-27T09:02:11;100215.09;;;2.40;96.44
75317;BME280;63913;51.492;10.368;2024-01-27T09:04:36;100205.22;;;2.43;96.45
75317;BME280;63913;51.492;10.368;2024-01-27T09:07:02;100209.13;;;2.50;96.57
75317;BME280;63913;51.492;10.368;2024-01-27T09:09:27;100203.38;;;2.52;96.18
75317;BME280;63913;51.492;10.368;2024-01-27T09:11:54;100197.69;;;2.55;96.11
75317;BME280;63913;51.492;10.368;2024-01-27T09:14:19;100203.03;;;2.58;95.44
75317;BME280;63913;51.492;10.368;2024-01-27T09:16:45;100207.56;;;2.62;95.07
75317;BME280;63913;51.492;10.368;2024-01-27T09:19:11;100220.88;;;2.69;94.49
75317;BME280;63913;51.492;10.368;2024-01-27T09:21:37;100219.97;;;2.69;94.71
75317;BME280;63913;51.492;10.368;2024-01-27T09:24:02;100221.13;;;2.73;94.35
75317;BME280;63913;51.492;10.368;2024-01-27T09:26:28;100236.97;;;2.80;94.13
75317;BME280;63913;51.492;10.368;2024-01-27T09:28:54;100222.00;;;2.83;93.57
75317;BME280;63913;51.492;10.368;2024-01-27T09:31:23;100224.13;;;2.89;93.84
75317;BME280;63913;51.492;10.368;2024-01-27T09:33:50;100224.13;;;2.89;93.88
75317;BME280;63913;51.492;10.368;2024-01-27T09:36:16;100219.31;;;2.92;93.91
75317;BME280;63913;51.492;10.368;2024-01-27T09:38:42;100235.78;;;2.97;93.17
75317;BME280;63913;51.492;10.368;2024-01-27T09:41:08;100232.72;;;3.01;93.20
75317;BME280;63913;51.492;10.368;2024-01-27T09:43:35;100228.66;;;3.03;92.93
75317;BME280;63913;51.492;10.368;2024-01-27T09:46:02;100230.56;;;3.05;91.97
75317;BME280;63913;51.492;10.368;2024-01-27T09:48:29;100236.75;;;3.09;91.86
75317;BME280;63913;51.492;10.368;2024-01-27T09:50:57;100235.09;;;3.10;91.45
75317;BME280;63913;51.492;10.368;2024-01-27T09:53:23;100233.97;;;3.16;91.47
75317;BME280;63913;51.492;10.368;2024-01-27T09:55:49;100235.97;;;3.20;90.79
75317;BME280;63913;51.492;10.368;2024-01-27T09:58:15;100235.06;;;3.20;90.78
75317;BME280;63913;51.492;10.368;2024-01-27T10:00:41;100243.59;;;3.20;90.54
75317;BME280;63913;51.492;10.368;2024-01-27T10:03:07;100233.66;;;3.23;90.10
75317;BME280;63913;51.492;10.368;2024-01-27T10:05:33;100246.72;;;3.28;90.30
75317;BME280;63913;51.492;10.368;2024-01-27T10:08:00;100245.94;;;3.39;90.22
75317;BME280;63913;51.492;10.368;2024-01-27T10:10:25;100246.25;;;3.43;89.83
75317;BME280;63913;51.492;10.368;2024-01-27T10:12:52;100248.50;;;3.51;89.75
75317;BME280;63913;51.492;10.368;2024-01-27T10:15:20;100250.75;;;3.58;89.56
75317;BME280;63913;51.492;10.368;2024-01-27T10:17:45;100246.81;;;3.61;88.99
75317;BME280;63913;51.492;10.368;2024-01-27T10:20:11;100246.06;;;3.62;88.97
75317;BME280;63913;51.492;10.368;2024-01-27T10:22:41;100258.34;;;3.68;88.99
75317;BME280;63913;51.492;10.368;2024-01-27T10:25:08;100248.53;;;3.72;88.82
75317;BME280;63913;51.492;10.368;2024-01-27T10:27:34;100244.34;;;3.73;88.32
75317;BME280;63913;51.492;10.368;2024-01-27T10:30:00;100237.69;;;3.75;87.47
75317;BME280;63913;51.492;10.368;2024-01-27T10:32:25;100244.44;;;3.74;87.43
75317;BME280;63913;51.492;10.368;2024-01-27T10:35:07;100237.31;;;3.80;87.62
75317;BME280;63913;51.492;10.368;2024-01-27T10:37:36;100234.19;;;3.84;86.95
75317;BME280;63913;51.492;10.368;2024-01-27T10:40:03;100228.47;;;3.87;87.34
75317;BME280;63913;51.492;10.368;2024-01-27T10:42:29;100237.44;;;3.94;87.07
75317;BME280;63913;51.492;10.368;2024-01-27T10:44:58;100230.81;;;3.96;86.89
75317;BME280;63913;51.492;10.368;2024-01-27T10:47:27;100235.47;;;4.01;86.20
75317;BME280;63913;51.492;10.368;2024-01-27T10:49:55;100240.56;;;4.01;86.39
75317;BME280;63913;51.492;10.368;2024-01-27T10:52:23;100231.63;;;4.06;85.55
75317;BME280;63913;51.492;10.368;2024-01-27T10:54:57;100223.56;;;4.12;85.72
75317;BME280;63913;51.492;10.368;2024-01-27T10:57:24;100238.09;;;4.13;86.20
75317;BME280;63913;51.492;10.368;2024-01-27T10:59:55;100230.09;;;4.08;85.71
75317;BME280;63913;51.492;10.368;2024-01-27T11:02:21;100233.50;;;4.09;85.35
75317;BME280;63913;51.492;10.368;2024-01-27T11:04:51;100225.63;;;4.06;85.99
75317;BME280;63913;51.492;10.368;2024-01-27T11:07:20;100221.94;;;4.12;86.00
75317;BME280;63913;51.492;10.368;2024-01-27T11:09:49;100224.91;;;4.18;84.80
75317;BME280;63913;51.492;10.368;2024-01-27T11:12:21;100219.38;;;4.12;84.55
75317;BME280;63913;51.492;10.368;2024-01-27T11:14:48;100234.53;;;4.11;84.37
75317;BME280;63913;51.492;10.368;2024-01-27T11:17:14;100230.00;;;4.18;84.93
75317;BME280;63913;51.492;10.368;2024-01-27T11:19:41;100236.09;;;4.20;84.04
75317;BME280;63913;51.492;10.368;2024-01-27T11:22:06;100238.09;;;4.25;84.35
75317;BME280;63913;51.492;10.368;2024-01-27T11:24:32;100238.66;;;4.32;84.43
75317;BME280;63913;51.492;10.368;2024-01-27T11:29:26;100227.84;;;4.35;84.54
75317;BME280;63913;51.492;10.368;2024-01-27T11:31:54;100216.00;;;4.35;84.46
75317;BME280;63913;51.492;10.368;2024-01-27T11:34:21;100223.97;;;4.40;84.54
75317;BME280;63913;51.492;10.368;2024-01-27T11:36:47;100209.44;;;4.39;83.85
75317;BME280;63913;51.492;10.368;2024-01-27T11:39:28;100209.81;;;4.43;83.45
75317;BME280;63913;51.492;10.368;2024-01-27T11:42:05;100212.47;;;4.45;83.75
75317;BME280;63913;51.492;10.368;2024-01-27T11:44:34;100218.25;;;4.54;83.31
75317;BME280;63913;51.492;10.368;2024-01-27T11:47:04;100211.94;;;4.60;82.40
75317;BME280;63913;51.492;10.368;2024-01-27T11:49:33;100208.16;;;4.67;82.28
75317;BME280;63913;51.492;10.368;2024-01-27T11:51:59;100208.28;;;4.69;81.86
75317;BME280;63913;51.492;10.368;2024-01-27T11:54:25;100201.72;;;4.72;81.20
75317;BME280;63913;51.492;10.368;2024-01-27T11:56:50;100198.09;;;4.69;80.82
75317;BME280;63913;51.492;10.368;2024-01-27T11:59:16;100212.38;;;4.78;80.31
75317;BME280;63913;51.492;10.368;2024-01-27T12:01:42;100208.38;;;4.82;79.34
75317;BME280;63913;51.492;10.368;2024-01-27T12:04:09;100206.72;;;4.82;78.86
75317;BME280;63913;51.492;10.368;2024-01-27T12:06:34;100194.22;;;4.85;78.83
75317;BME280;63913;51.492;10.368;2024-01-27T12:09:00;100200.19;;;4.86;77.60
75317;BME280;63913;51.492;10.368;2024-01-27T12:11:25;100200.41;;;4.89;77.73
75317;BME280;63913;51.492;10.368;2024-01-27T12:13:52;100190.00;;;4.86;77.29
75317;BME280;63913;51.492;10.368;2024-01-27T12:16:18;100196.53;;;4.94;77.37
75317;BME280;63913;51.492;10.368;2024-01-27T12:18:44;100199.41;;;4.98;76.96
75317;BME280;63913;51.492;10.368;2024-01-27T12:21:10;100203.06;;;5.02;77.33
75317;BME280;63913;51.492;10.368;2024-01-27T12:23:35;100208.47;;;5.07;77.55
75317;BME280;63913;51.492;10.368;2024-01-27T12:26:01;100213.03;;;5.11;76.20
75317;BME280;63913;51.492;10.368;2024-01-27T12:28:27;100207.34;;;5.15;75.72
75317;BME280;63913;51.492;10.368;2024-01-27T12:30:53;100214.13;;;5.14;76.00
75317;BME280;63913;51.492;10.368;2024-01-27T12:33:19;100210.69;;;5.14;75.39
75317;BME280;63913;51.492;10.368;2024-01-27T12:35:49;100230.97;;;5.12;75.63
75317;BME280;63913;51.492;10.368;2024-01-27T12:38:14;100223.44;;;5.14;75.64
75317;BME280;63913;51.492;10.368;2024-01-27T12:40:40;100232.97;;;5.16;75.75
75317;BME280;63913;51.492;10.368;2024-01-27T12:43:05;100227.22;;;5.19;75.69
75317;BME280;63913;51.492;10.368;2024-01-27T12:45:31;100229.19;;;5.23;75.83
75317;BME280;63913;51.492;10.368;2024-01-27T12:47:56;100217.63;;;5.28;75.08